createdAt,value
2018-09-27T00:01:59.337Z,58.25
2018-09-27T00:04:28.239Z,58.66
2018-09-27T00:06:56.954Z,58.85
2018-09-27T00:09:25.618Z,58.91
2018-09-27T00:11:54.350Z,59.38
2018-09-27T00:14:23.175Z,58.80
2018-09-27T00:16:51.956Z,58.78
2018-09-27T00:19:20.657Z,58.39
2018-09-27T00:21:49.986Z,58.71
2018-09-27T00:24:18.728Z,58.48
2018-09-27T00:26:47.452Z,58.73
2018-09-27T00:29:16.694Z,58.35
2018-09-27T00:31:45.368Z,58.68
2018-09-27T00:34:14.170Z,57.80
2018-09-27T00:36:42.891Z,58.31
2018-09-27T00:39:12.938Z,57.71
2018-09-27T00:41:41.640Z,58.21
2018-09-27T00:44:10.424Z,58.05
2018-09-27T00:46:39.099Z,58.12
2018-09-27T00:49:07.883Z,58.18
2018-09-27T00:51:36.630Z,58.57
2018-09-27T00:54:06.051Z,58.42
2018-09-27T00:56:34.879Z,58.06
2018-09-27T00:59:03.572Z,58.66
2018-09-27T01:01:32.258Z,58.52
2018-09-27T01:04:00.965Z,58.34
2018-09-27T01:06:29.981Z,58.44
2018-09-27T01:08:58.655Z,58.45
2018-09-27T01:11:27.387Z,58.74
2018-09-27T01:13:56.055Z,58.82
2018-09-27T01:16:24.802Z,58.72
2018-09-27T01:18:53.472Z,59.23
2018-09-27T01:21:22.281Z,58.92
2018-09-27T01:23:51.000Z,59.18
2018-09-27T01:26:19.758Z,59.53
2018-09-27T01:28:48.419Z,59.28
2018-09-27T01:31:17.299Z,59.01
2018-09-27T01:33:45.977Z,59.58
2018-09-27T01:36:14.691Z,59.35
2018-09-27T01:38:43.363Z,59.45
2018-09-27T01:41:12.157Z,59.79
2018-09-27T01:43:40.887Z,59.79
2018-09-27T01:46:09.862Z,59.83
2018-09-27T01:48:39.378Z,59.49
2018-09-27T01:51:08.135Z,59.65
2018-09-27T01:53:39.028Z,59.19
2018-09-27T01:56:07.726Z,59.81
2018-09-27T01:58:36.407Z,59.45
2018-09-27T02:01:05.125Z,59.74
2018-09-27T02:03:33.984Z,60.03
2018-09-27T02:06:03.159Z,59.87
2018-09-27T02:08:31.902Z,59.59
2018-09-27T02:11:00.754Z,59.50
2018-09-27T02:13:30.265Z,59.18
2018-09-27T02:15:58.973Z,59.71
2018-09-27T02:18:27.714Z,60.10
2018-09-27T02:20:56.489Z,60.08
2018-09-27T02:23:25.190Z,60.21
2018-09-27T02:25:53.920Z,60.57
2018-09-27T02:28:22.764Z,60.63
2018-09-27T02:30:51.471Z,60.72
2018-09-27T02:33:20.373Z,60.38
2018-09-27T02:35:49.083Z,61.09
2018-09-27T02:38:19.136Z,60.90
2018-09-27T02:40:47.942Z,61.15
2018-09-27T02:43:16.751Z,60.84
2018-09-27T02:45:45.555Z,61.59
2018-09-27T02:48:14.600Z,61.00
2018-09-27T02:50:43.608Z,62.24
2018-09-27T02:53:12.960Z,61.69
2018-09-27T02:55:41.755Z,61.85
2018-09-27T02:58:10.442Z,61.70
2018-09-27T03:00:39.160Z,62.13
2018-09-27T03:03:08.244Z,61.81
2018-09-27T03:05:37.013Z,61.85
2018-09-27T03:08:06.148Z,61.78
2018-09-27T03:10:34.835Z,61.14
2018-09-27T03:13:03.666Z,61.69
2018-09-27T03:15:32.364Z,61.23
2018-09-27T03:18:01.368Z,61.41
2018-09-27T03:20:30.460Z,61.47
2018-09-27T03:22:59.246Z,61.87
2018-09-27T03:25:28.091Z,62.03
2018-09-27T03:27:56.778Z,61.78
2018-09-27T03:30:25.557Z,61.90
2018-09-27T03:38:03.139Z,62.11
2018-09-27T03:40:31.844Z,61.64
2018-09-27T03:43:01.131Z,61.91
2018-09-27T03:45:29.885Z,62.67
2018-09-27T03:47:58.968Z,62.54
2018-09-27T03:50:28.047Z,62.35
2018-09-27T03:52:56.940Z,62.35
2018-09-27T03:55:25.679Z,63.06
2018-09-27T03:57:54.520Z,62.86
2018-09-27T04:00:23.204Z,62.85
2018-09-27T04:02:52.161Z,62.31
2018-09-27T04:05:21.304Z,62.93
2018-09-27T04:07:50.288Z,63.14
2018-09-27T04:10:19.347Z,63.30
2018-09-27T04:12:48.390Z,62.62
2018-09-27T04:15:17.046Z,62.89
2018-09-27T04:17:46.022Z,62.92
2018-09-27T04:20:14.864Z,62.96
2018-09-27T04:22:44.691Z,63.30
2018-09-27T04:25:13.414Z,62.50
2018-09-27T04:27:42.301Z,63.29
2018-09-27T04:30:11.184Z,63.23
2018-09-27T04:32:40.222Z,62.79
2018-09-27T04:35:08.902Z,62.98
2018-09-27T04:37:37.982Z,62.55
2018-09-27T04:40:07.370Z,62.61
2018-09-27T04:42:36.141Z,62.88
2018-09-27T04:45:05.427Z,62.67
2018-09-27T04:47:34.397Z,63.19
2018-09-27T04:50:03.133Z,63.45
2018-09-27T04:52:31.961Z,63.36
2018-09-27T04:55:00.623Z,62.88
2018-09-27T04:57:29.829Z,62.70
2018-09-27T04:59:59.002Z,62.92
2018-09-27T05:02:28.173Z,63.27
2018-09-27T05:04:56.928Z,63.12
2018-09-27T05:07:25.935Z,62.90
2018-09-27T05:09:55.030Z,62.96
2018-09-27T05:12:24.700Z,63.09
2018-09-27T05:14:54.158Z,63.12
2018-09-27T05:17:23.626Z,63.29
2018-09-27T05:19:52.383Z,63.31
2018-09-27T05:22:21.470Z,63.30
2018-09-27T05:24:50.445Z,63.32
2018-09-27T05:27:19.246Z,63.47
2018-09-27T05:29:48.208Z,64.12
2018-09-27T05:32:17.292Z,63.92
2018-09-27T05:34:46.126Z,63.78
2018-09-27T05:37:14.848Z,63.54
2018-09-27T05:39:43.659Z,64.17
2018-09-27T05:42:13.551Z,63.38
2018-09-27T05:44:42.545Z,63.85
2018-09-27T05:47:11.773Z,63.64
2018-09-27T05:49:40.478Z,63.88
2018-09-27T05:52:09.488Z,64.31
2018-09-27T05:54:38.202Z,65.39
2018-09-27T05:57:06.977Z,65.60
2018-09-27T05:59:35.714Z,65.45
2018-09-27T06:02:04.472Z,64.82
2018-09-27T06:04:33.709Z,65.05
2018-09-27T06:07:02.462Z,64.68
2018-09-27T06:09:31.191Z,63.99
2018-09-27T06:12:00.041Z,63.21
2018-09-27T06:14:28.842Z,63.43
2018-09-27T06:16:57.609Z,62.99
2018-09-27T06:19:26.592Z,62.07
2018-09-27T06:21:55.516Z,61.86
2018-09-27T06:24:24.346Z,62.32
2018-09-27T06:26:53.029Z,62.28
2018-09-27T06:29:21.754Z,62.08
2018-09-27T06:31:50.457Z,61.38
2018-09-27T06:34:19.194Z,61.92
2018-09-27T06:36:48.057Z,61.17
2018-09-27T06:39:16.840Z,61.58
2018-09-27T06:41:45.597Z,61.09
2018-09-27T06:44:14.346Z,61.38
2018-09-27T06:46:43.413Z,61.48
2018-09-27T06:49:13.519Z,61.59
2018-09-27T06:51:42.252Z,61.32
2018-09-27T06:54:10.927Z,61.63
2018-09-27T06:56:39.664Z,61.45
2018-09-27T06:59:09.011Z,61.78
2018-09-27T07:01:37.865Z,61.74
2018-09-27T07:04:06.628Z,61.79
2018-09-27T07:06:36.145Z,61.72
2018-09-27T07:09:07.249Z,60.93
2018-09-27T07:11:36.050Z,61.56
2018-09-27T07:14:04.912Z,61.58
2018-09-27T07:16:33.705Z,61.52
2018-09-27T07:19:02.555Z,61.21
2018-09-27T07:21:31.467Z,61.32
2018-09-27T07:24:00.688Z,61.54
2018-09-27T07:26:29.681Z,61.33
2018-09-27T07:28:58.839Z,60.71
2018-09-27T07:31:27.721Z,60.85
2018-09-27T07:33:56.469Z,60.94
2018-09-27T07:36:25.258Z,61.05
2018-09-27T07:38:54.218Z,61.00
2018-09-27T07:41:22.958Z,61.20
2018-09-27T07:43:51.738Z,61.42
2018-09-27T07:46:20.522Z,61.65
2018-09-27T07:48:49.917Z,61.59
2018-09-27T07:51:18.858Z,61.12
2018-09-27T07:53:47.685Z,61.30
2018-09-27T07:56:16.518Z,61.02
2018-09-27T07:58:45.690Z,61.93
2018-09-27T08:01:14.495Z,64.17
2018-09-27T08:03:43.321Z,65.07
2018-09-27T08:06:12.150Z,64.55
2018-09-27T08:08:41.156Z,63.31
2018-09-27T08:11:10.707Z,62.00
2018-09-27T08:13:40.549Z,62.17
2018-09-27T08:16:09.467Z,61.12
2018-09-27T08:18:39.109Z,61.65
2018-09-27T08:21:08.881Z,61.41
2018-09-27T08:23:37.848Z,61.18
2018-09-27T08:26:06.857Z,60.95
2018-09-27T08:28:35.576Z,60.33
2018-09-27T08:31:04.654Z,60.24
2018-09-27T08:33:33.487Z,60.33
2018-09-27T08:36:02.266Z,60.16
2018-09-27T08:38:31.025Z,59.53
2018-09-27T08:41:00.147Z,59.11
2018-09-27T08:43:29.008Z,59.29
2018-09-27T08:45:58.266Z,58.79
2018-09-27T08:48:28.100Z,58.57
2018-09-27T08:50:57.261Z,58.33
2018-09-27T08:53:27.234Z,58.93
2018-09-27T08:55:56.481Z,58.59
2018-09-27T08:58:25.432Z,57.98
2018-09-27T09:00:54.809Z,56.61
2018-09-27T09:03:23.901Z,56.76
2018-09-27T09:05:53.299Z,56.74
2018-09-27T09:08:22.869Z,56.02
2018-09-27T09:10:52.256Z,56.45
2018-09-27T09:13:21.302Z,55.15
2018-09-27T09:15:50.679Z,54.64
2018-09-27T09:18:19.709Z,54.61
2018-09-27T09:20:48.760Z,54.74
2018-09-27T09:23:17.708Z,54.26
2018-09-27T09:25:47.132Z,53.91
2018-09-27T09:28:16.194Z,53.66
2018-09-27T09:30:45.373Z,53.13
2018-09-27T09:33:14.364Z,52.27
2018-09-27T09:35:43.654Z,52.35
2018-09-27T09:38:12.916Z,51.62
2018-09-27T09:40:43.374Z,51.44
2018-09-27T09:43:12.563Z,50.66
2018-09-27T09:45:41.679Z,50.63
2018-09-27T09:48:10.741Z,49.65
2018-09-27T09:50:39.986Z,48.93
2018-09-27T09:53:09.011Z,48.82
2018-09-27T09:55:38.291Z,48.38
2018-09-27T09:58:07.620Z,47.71
2018-09-27T10:00:38.019Z,47.17
2018-09-27T10:03:08.612Z,46.37
2018-09-27T10:05:37.871Z,46.09
2018-09-27T10:08:06.910Z,45.91
2018-09-27T10:10:37.260Z,45.71
2018-09-27T10:13:07.003Z,45.21
2018-09-27T10:15:36.152Z,44.88
2018-09-27T10:18:05.454Z,44.92
2018-09-27T10:20:34.471Z,44.10
2018-09-27T10:23:03.623Z,43.15
2018-09-27T10:25:32.939Z,41.84
2018-09-27T10:28:02.090Z,42.21
2018-09-27T10:30:31.359Z,41.50
2018-09-27T10:33:00.281Z,41.55
2018-09-27T10:35:29.533Z,40.59
2018-09-27T10:37:58.581Z,39.75
2018-09-27T10:40:28.547Z,39.57
2018-09-27T10:42:58.023Z,39.31
2018-09-27T10:45:27.097Z,38.40
2018-09-27T10:47:56.777Z,38.28
2018-09-27T10:50:26.771Z,37.72
2018-09-27T10:52:56.022Z,38.22
2018-09-27T10:55:25.123Z,37.87
2018-09-27T10:57:54.631Z,38.09
2018-09-27T11:00:24.283Z,37.40
2018-09-27T11:02:53.782Z,35.93
2018-09-27T11:05:22.866Z,33.93
2018-09-27T11:07:52.569Z,31.66
2018-09-27T11:10:21.796Z,31.57
2018-09-27T11:12:50.967Z,30.88
2018-09-27T11:15:21.195Z,29.98
2018-09-27T11:17:50.384Z,29.74
2018-09-27T11:20:20.282Z,28.78
2018-09-27T11:22:49.378Z,27.93
2018-09-27T11:25:18.469Z,27.08
2018-09-27T11:27:48.355Z,27.68
2018-09-27T11:30:22.533Z,27.57
2018-09-27T11:32:51.740Z,27.51
2018-09-27T11:35:20.969Z,27.29
2018-09-27T11:37:50.128Z,25.79
2018-09-27T11:40:20.473Z,25.49
2018-09-27T11:42:50.398Z,25.37
2018-09-27T11:45:19.697Z,25.10
2018-09-27T11:47:49.140Z,26.15
2018-09-27T11:50:18.256Z,25.62
2018-09-27T11:52:47.679Z,24.73
2018-09-27T11:55:17.254Z,23.76
2018-09-27T11:57:46.594Z,23.72
2018-09-27T12:00:16.075Z,23.28
2018-09-27T12:02:45.807Z,23.18
2018-09-27T12:05:14.921Z,23.32
2018-09-27T12:07:44.942Z,24.53
2018-09-27T12:10:14.026Z,24.50
2018-09-27T12:12:43.431Z,24.83
2018-09-27T12:15:14.043Z,25.20
2018-09-27T12:17:43.164Z,24.78
2018-09-27T12:20:12.666Z,24.72
2018-09-27T12:22:41.910Z,25.00
2018-09-27T12:25:11.198Z,24.54
2018-09-27T12:27:40.491Z,24.07
2018-09-27T12:30:13.135Z,24.28
2018-09-27T12:32:42.247Z,23.48
2018-09-27T12:35:12.187Z,24.15
2018-09-27T12:37:41.618Z,24.67
2018-09-27T12:40:10.880Z,24.96
2018-09-27T12:42:40.150Z,24.56
2018-09-27T12:45:09.594Z,25.14
2018-09-27T12:47:39.282Z,25.05
2018-09-27T12:50:09.395Z,25.11
2018-09-27T12:52:38.653Z,24.64
2018-09-27T12:55:08.280Z,23.68
2018-09-27T12:57:37.533Z,22.36
2018-09-27T13:00:06.729Z,21.68
2018-09-27T13:02:36.091Z,22.16
2018-09-27T13:05:05.627Z,21.78
2018-09-27T13:07:34.871Z,21.36
2018-09-27T13:10:04.202Z,21.92
2018-09-27T13:12:34.372Z,21.55
2018-09-27T13:15:03.935Z,22.17
2018-09-27T13:17:33.661Z,22.11
2018-09-27T13:20:03.115Z,21.87
2018-09-27T13:22:32.276Z,21.08
2018-09-27T13:25:01.645Z,22.17
2018-09-27T13:27:30.725Z,20.60
2018-09-27T13:29:59.938Z,20.99
2018-09-27T13:32:29.191Z,21.14
2018-09-27T13:34:58.290Z,21.20
2018-09-27T13:37:27.365Z,21.41
2018-09-27T13:39:56.856Z,20.25
2018-09-27T13:42:26.483Z,20.96
2018-09-27T13:44:56.094Z,21.70
2018-09-27T13:47:25.411Z,21.44
2018-09-27T13:49:54.567Z,20.67
2018-09-27T13:52:24.034Z,21.12
2018-09-27T13:54:52.996Z,20.71
2018-09-27T13:57:22.402Z,21.11
2018-09-27T13:59:51.782Z,21.41
2018-09-27T14:02:20.880Z,20.52
2018-09-27T14:04:51.063Z,20.47
2018-09-27T14:07:20.406Z,21.05
2018-09-27T14:09:49.645Z,20.94
2018-09-27T14:12:18.654Z,20.68
2018-09-27T14:14:48.248Z,20.73
2018-09-27T14:17:20.587Z,20.04
2018-09-27T14:19:49.736Z,20.44
2018-09-27T14:22:18.836Z,20.44
2018-09-27T14:24:48.315Z,19.66
2018-09-27T14:27:17.520Z,20.39
2018-09-27T14:29:47.099Z,20.46
2018-09-27T14:32:16.289Z,20.19
2018-09-27T14:34:46.078Z,20.48
2018-09-27T14:37:15.145Z,20.69
2018-09-27T14:39:44.343Z,20.64
2018-09-27T14:42:13.464Z,20.74
2018-09-27T14:44:42.623Z,21.16
2018-09-27T14:47:12.175Z,20.74
2018-09-27T14:49:41.399Z,20.73
2018-09-27T14:52:10.967Z,20.99
2018-09-27T14:54:40.343Z,20.70
2018-09-27T14:57:09.785Z,21.39
2018-09-27T14:59:39.373Z,20.63
2018-09-27T15:02:09.165Z,20.87
2018-09-27T15:04:38.379Z,21.75
2018-09-27T15:07:07.593Z,21.49
2018-09-27T15:09:36.707Z,22.22
2018-09-27T15:12:05.878Z,21.79
2018-09-27T15:14:34.946Z,22.48
2018-09-27T15:17:04.223Z,23.69
2018-09-27T15:19:33.509Z,23.77
2018-09-27T15:22:02.726Z,24.42
2018-09-27T15:24:31.789Z,24.32
2018-09-27T15:27:01.102Z,25.22
2018-09-27T15:29:30.236Z,24.48
2018-09-27T15:31:59.304Z,25.62
2018-09-27T15:34:28.614Z,26.01
2018-09-27T15:36:57.812Z,25.72
2018-09-27T15:39:27.065Z,26.26
2018-09-27T15:41:56.183Z,26.22
2018-09-27T15:44:25.183Z,26.96
2018-09-27T15:46:54.715Z,26.70
2018-09-27T15:49:23.802Z,27.27
2018-09-27T15:51:52.797Z,27.71
2018-09-27T15:54:21.928Z,27.28
2018-09-27T15:56:51.108Z,28.04
2018-09-27T15:59:20.153Z,27.81
2018-09-27T16:01:49.332Z,28.06
2018-09-27T16:04:18.435Z,28.57
2018-09-27T16:06:47.592Z,29.37
2018-09-27T16:09:16.686Z,29.96
2018-09-27T16:11:45.959Z,30.35
2018-09-27T16:14:15.334Z,31.06
2018-09-27T16:16:44.478Z,32.25
2018-09-27T16:19:13.615Z,31.71
2018-09-27T16:21:42.907Z,32.25
2018-09-27T16:24:12.211Z,33.27
2018-09-27T16:26:42.220Z,33.24
2018-09-27T16:29:11.549Z,33.62
2018-09-27T16:31:40.504Z,34.52
2018-09-27T16:34:09.917Z,34.74
2018-09-27T16:36:38.895Z,34.75
2018-09-27T16:39:09.455Z,35.17
2018-09-27T16:41:39.287Z,35.16
2018-09-27T16:44:08.666Z,35.52
2018-09-27T16:46:38.100Z,35.37
2018-09-27T16:49:07.406Z,35.67
2018-09-27T16:51:36.725Z,35.69
2018-09-27T16:54:06.053Z,35.81
2018-09-27T16:56:35.188Z,36.59
2018-09-27T16:59:04.401Z,36.42
2018-09-27T17:01:33.407Z,36.32
2018-09-27T17:04:02.665Z,37.45
2018-09-27T17:06:32.012Z,37.62
2018-09-27T17:09:01.165Z,38.16
2018-09-27T17:11:30.409Z,37.92
2018-09-27T17:13:59.837Z,38.33
2018-09-27T17:16:28.961Z,37.79
2018-09-27T17:18:58.285Z,38.07
2018-09-27T17:21:27.578Z,39.10
2018-09-27T17:23:56.906Z,38.80
2018-09-27T17:26:25.991Z,39.19
2018-09-27T17:28:55.160Z,39.39
2018-09-27T17:31:24.474Z,39.67
2018-09-27T17:33:53.837Z,39.74
2018-09-27T17:36:23.086Z,39.18
2018-09-27T17:38:52.171Z,39.30
2018-09-27T17:41:21.231Z,40.07
2018-09-27T17:43:50.404Z,40.04
2018-09-27T17:46:20.529Z,40.22
2018-09-27T17:48:49.757Z,40.10
2018-09-27T17:51:18.992Z,39.84
2018-09-27T17:53:48.507Z,39.79
2018-09-27T17:56:17.744Z,40.67
2018-09-27T17:58:47.253Z,40.13
2018-09-27T18:01:16.843Z,40.44
2018-09-27T18:03:46.660Z,40.92
2018-09-27T18:06:15.788Z,40.45
2018-09-27T18:08:44.918Z,40.55
2018-09-27T18:11:14.999Z,40.94
2018-09-27T18:13:45.033Z,41.25
2018-09-27T18:16:14.581Z,40.88
2018-09-27T18:18:44.014Z,40.97
2018-09-27T18:21:13.547Z,41.07
2018-09-27T18:23:42.797Z,40.92
2018-09-27T18:26:11.769Z,41.33
2018-09-27T18:28:40.796Z,41.48
2018-09-27T18:31:10.344Z,40.99
2018-09-27T18:33:40.005Z,40.92
2018-09-27T18:36:09.235Z,41.21
2018-09-27T18:38:38.537Z,40.87
2018-09-27T18:41:07.988Z,41.35
2018-09-27T18:43:37.295Z,40.83
2018-09-27T18:46:06.535Z,41.30
2018-09-27T18:48:35.753Z,40.79
2018-09-27T18:51:06.111Z,41.51
2018-09-27T18:53:35.436Z,41.66
2018-09-27T18:56:04.552Z,41.39
2018-09-27T18:58:34.019Z,41.81
2018-09-27T19:01:03.244Z,41.45
2018-09-27T19:03:32.278Z,41.85
2018-09-27T19:06:01.586Z,41.75
2018-09-27T19:08:31.082Z,41.78
2018-09-27T19:11:00.167Z,41.09
2018-09-27T19:13:29.295Z,41.67
2018-09-27T19:15:58.312Z,41.13
2018-09-27T19:18:27.554Z,40.92
2018-09-27T19:20:56.869Z,41.41
2018-09-27T19:23:25.966Z,41.23
2018-09-27T19:25:55.180Z,42.13
2018-09-27T19:28:24.563Z,41.77
2018-09-27T19:30:53.674Z,41.80
2018-09-27T19:33:22.740Z,41.76
2018-09-27T19:35:52.114Z,41.42
2018-09-27T19:38:21.248Z,41.14
2018-09-27T19:40:50.679Z,41.73
2018-09-27T19:43:19.712Z,41.82
2018-09-27T19:45:49.061Z,41.66
2018-09-27T19:48:18.045Z,41.76
2018-09-27T19:50:47.342Z,41.93
2018-09-27T19:53:16.460Z,42.14
2018-09-27T19:55:45.456Z,41.94
2018-09-27T19:58:14.602Z,41.60
2018-09-27T20:00:43.928Z,42.41
2018-09-27T20:03:13.292Z,41.94
2018-09-27T20:05:42.270Z,41.79
2018-09-27T20:08:11.527Z,41.95
2018-09-27T20:10:41.486Z,42.15
2018-09-27T20:13:10.736Z,42.18
2018-09-27T20:15:40.374Z,41.76
2018-09-27T20:18:09.681Z,41.88
2018-09-27T20:20:38.816Z,41.60
2018-09-27T20:23:08.212Z,42.51
2018-09-27T20:25:37.814Z,42.46
2018-09-27T20:28:07.250Z,42.02
2018-09-27T20:30:36.792Z,42.85
2018-09-27T20:33:06.740Z,42.26
2018-09-27T20:35:36.244Z,42.45
2018-09-27T20:38:06.538Z,43.01
2018-09-27T20:40:35.699Z,42.36
2018-09-27T20:43:05.120Z,42.74
2018-09-27T20:45:34.623Z,42.55
2018-09-27T20:48:03.956Z,42.95
2018-09-27T20:50:33.404Z,43.42
2018-09-27T20:53:02.763Z,43.16
2018-09-27T20:55:31.955Z,43.62
2018-09-27T20:58:01.257Z,43.91
2018-09-27T21:00:30.378Z,43.67
2018-09-27T21:02:59.641Z,44.04
2018-09-27T21:05:29.262Z,43.41
2018-09-27T21:07:58.437Z,43.62
2018-09-27T21:10:27.539Z,43.66
2018-09-27T21:12:56.877Z,43.57
2018-09-27T21:15:25.983Z,44.31
2018-09-27T21:17:55.140Z,44.06
2018-09-27T21:20:24.186Z,44.15
2018-09-27T21:22:53.434Z,44.68
2018-09-27T21:25:23.570Z,44.54
2018-09-27T21:27:53.070Z,44.78
2018-09-27T21:30:22.195Z,45.16
2018-09-27T21:32:51.558Z,45.14
2018-09-27T21:35:20.771Z,45.41
2018-09-27T21:37:50.735Z,45.49
2018-09-27T21:40:19.797Z,45.81
2018-09-27T21:42:49.204Z,45.74
2018-09-27T21:45:18.473Z,45.99
2018-09-27T21:47:47.768Z,46.15
2018-09-27T21:50:17.301Z,46.51
2018-09-27T21:52:47.053Z,46.64
2018-09-27T21:55:16.138Z,46.77
2018-09-27T21:57:45.710Z,46.72
2018-09-27T22:00:15.114Z,46.74
2018-09-27T22:02:44.279Z,47.08
2018-09-27T22:05:13.287Z,46.99
2018-09-27T22:07:42.509Z,47.05
2018-09-27T22:10:11.572Z,47.18
2018-09-27T22:12:40.596Z,47.17
2018-09-27T22:15:09.685Z,47.45
2018-09-27T22:17:38.851Z,47.39
2018-09-27T22:20:08.445Z,47.76
2018-09-27T22:22:37.617Z,47.87
2018-09-27T22:25:06.615Z,48.08
2018-09-27T22:27:35.912Z,47.99
2018-09-27T22:30:05.525Z,48.16
2018-09-27T22:32:34.644Z,48.24
2018-09-27T22:35:03.864Z,48.46
2018-09-27T22:37:33.087Z,48.34
2018-09-27T22:40:02.359Z,48.63
2018-09-27T22:42:31.465Z,48.79
2018-09-27T22:45:00.871Z,48.47
2018-09-27T22:47:29.980Z,48.76
2018-09-27T22:49:59.255Z,48.77
2018-09-27T22:52:28.310Z,48.76
2018-09-27T22:54:57.257Z,48.81
2018-09-27T22:57:26.476Z,49.20
2018-09-27T22:59:55.856Z,49.29
2018-09-27T23:02:25.055Z,49.87
2018-09-27T23:04:54.082Z,49.47
2018-09-27T23:07:23.226Z,49.85
2018-09-27T23:09:52.618Z,49.96
2018-09-27T23:12:21.615Z,50.36
2018-09-27T23:14:50.637Z,50.46
2018-09-27T23:17:19.719Z,50.71
2018-09-27T23:19:48.843Z,50.73
2018-09-27T23:22:18.555Z,50.85
2018-09-27T23:24:47.889Z,50.63
2018-09-27T23:27:17.116Z,51.05
2018-09-27T23:29:46.380Z,51.39
2018-09-27T23:32:15.879Z,51.24
2018-09-27T23:34:45.391Z,51.54
2018-09-27T23:37:14.825Z,51.44
2018-09-27T23:39:44.676Z,51.67
2018-09-27T23:42:13.746Z,52.07
2018-09-27T23:44:42.783Z,52.06
2018-09-27T23:47:12.020Z,52.03
2018-09-27T23:49:41.316Z,51.99
2018-09-27T23:52:10.655Z,51.90
2018-09-27T23:54:39.994Z,52.57
2018-09-27T23:57:09.169Z,52.52
2018-09-27T23:59:38.642Z,52.61
